Impacts TAF Board
For situational awareness. Not to be used for flight planning purposes.
IDs:

KCLE - Cleveland/Hopkins In, OH, US

Issued at 0100 UTC 26 Apr 2019
Updated at 0202 UTC 26 Apr 2019
Potential Impact None Slight Moderate High
Time<<26/15Z 26/16Z 26/17Z 26/18Z 26/19Z 26/20Z 26/21Z 26/22Z 26/23Z 27/00Z 27/01Z 27/02Z 27/03Z>>
Type PRVL PRVL PRVL PRVL PRVL PRVL PRVL PRVL PRVL PRVL PRVL PRVL PRVL
VIS 5 5 5 5 5 >6 >6 >6 >6 >6 >6 >6 >6
CIG 10 10 20 20 20 50 50 50 50 50 50 50 50
Cover OVC OVC OVC OVC OVC OVC OVC OVC OVC OVC OVC OVC OVC
FltCat MVFR MVFR MVFR MVFR MVFR VFR VFR VFR VFR VFR VFR VFR VFR
WX -RA -RA -RA -RA -RA -- -- -- -- -- -- -- --
WDir 280 280 310 310 310 320 320 320 320 320 320 320 320
WSpd 10 10 20 20 20 20 20 20 20 20 20 20 20
WGst 20 20 30 30 30 30 30 30 30 30 30 30 30
Raw TAF
KCLE 260100Z 2601/2706 16008KT P6SM -RA OVC070
  FM260300 16008KT P6SM -SHRA OVC050
  FM260600 16010G20KT 5SM -SHRA BR OVC020
  TEMPO 2606/2609 2SM -RA OVC015
  FM260900 20015G25KT 5SM -RA OVC015
  TEMPO 2609/2612 2SM -RA OVC010
  FM261200 28010G20KT 5SM -RA OVC010
  FM261700 31020G30KT 5SM -RA OVC020
  FM262000 32020G30KT P6SM OVC050


METAR Board
Radar Display
Forecast Discussion
For situational awareness. Not to be used for flight planning purposes.